sensor_id;sensor_type;location;lat;lon;timestamp;P1;durP1;ratioP1;P2;durP2;ratioP2
18146;SDS011;9199;48.832;9.182;2023-04-06T00:00:22;11.23;;;5.90;;
18146;SDS011;9199;48.832;9.182;2023-04-06T00:02:50;11.23;;;6.03;;
18146;SDS011;9199;48.832;9.182;2023-04-06T00:05:17;10.73;;;5.45;;
18146;SDS011;9199;48.832;9.182;2023-04-06T00:07:44;8.48;;;5.13;;
18146;SDS011;9199;48.832;9.182;2023-04-06T00:10:11;10.45;;;5.55;;
18146;SDS011;9199;48.832;9.182;2023-04-06T00:12:37;11.93;;;5.80;;
18146;SDS011;9199;48.832;9.182;2023-04-06T00:15:04;9.40;;;5.63;;
18146;SDS011;9199;48.832;9.182;2023-04-06T00:17:32;10.40;;;6.38;;
18146;SDS011;9199;48.832;9.182;2023-04-06T00:20:00;12.75;;;7.18;;
18146;SDS011;9199;48.832;9.182;2023-04-06T00:22:26;14.73;;;7.88;;
18146;SDS011;9199;48.832;9.182;2023-04-06T00:24:53;13.40;;;7.70;;
18146;SDS011;9199;48.832;9.182;2023-04-06T00:27:20;12.27;;;7.20;;
18146;SDS011;9199;48.832;9.182;2023-04-06T00:29:47;11.00;;;6.85;;
18146;SDS011;9199;48.832;9.182;2023-04-06T00:32:13;14.20;;;7.65;;
18146;SDS011;9199;48.832;9.182;2023-04-06T00:34:40;14.45;;;7.90;;
18146;SDS011;9199;48.832;9.182;2023-04-06T00:37:08;11.90;;;8.10;;
18146;SDS011;9199;48.832;9.182;2023-04-06T00:39:35;16.13;;;8.10;;
18146;SDS011;9199;48.832;9.182;2023-04-06T00:42:01;18.55;;;7.65;;
18146;SDS011;9199;48.832;9.182;2023-04-06T00:44:36;11.82;;;6.90;;
18146;SDS011;9199;48.832;9.182;2023-04-06T00:47:03;10.07;;;6.28;;
18146;SDS011;9199;48.832;9.182;2023-04-06T00:49:29;14.43;;;7.95;;
18146;SDS011;9199;48.832;9.182;2023-04-06T00:51:56;16.17;;;7.57;;
18146;SDS011;9199;48.832;9.182;2023-04-06T00:54:24;15.60;;;7.95;;
18146;SDS011;9199;48.832;9.182;2023-04-06T00:56:51;14.82;;;7.60;;
18146;SDS011;9199;48.832;9.182;2023-04-06T00:59:18;13.82;;;8.13;;
18146;SDS011;9199;48.832;9.182;2023-04-06T01:01:45;14.45;;;7.65;;
18146;SDS011;9199;48.832;9.182;2023-04-06T01:04:12;16.63;;;8.20;;
18146;SDS011;9199;48.832;9.182;2023-04-06T01:06:38;16.13;;;8.52;;
18146;SDS011;9199;48.832;9.182;2023-04-06T01:09:05;16.17;;;8.60;;
18146;SDS011;9199;48.832;9.182;2023-04-06T01:11:34;18.40;;;8.68;;
18146;SDS011;9199;48.832;9.182;2023-04-06T01:14:01;16.13;;;8.68;;
18146;SDS011;9199;48.832;9.182;2023-04-06T01:16:29;15.00;;;8.70;;
18146;SDS011;9199;48.832;9.182;2023-04-06T01:18:56;16.55;;;8.63;;
18146;SDS011;9199;48.832;9.182;2023-04-06T01:21:22;14.73;;;8.73;;
18146;SDS011;9199;48.832;9.182;2023-04-06T01:23:51;13.77;;;8.48;;
18146;SDS011;9199;48.832;9.182;2023-04-06T01:26:18;14.15;;;8.70;;
18146;SDS011;9199;48.832;9.182;2023-04-06T01:28:45;15.60;;;8.57;;
18146;SDS011;9199;48.832;9.182;2023-04-06T01:31:11;14.35;;;8.90;;
18146;SDS011;9199;48.832;9.182;2023-04-06T01:33:38;14.63;;;8.30;;
18146;SDS011;9199;48.832;9.182;2023-04-06T01:36:05;18.35;;;9.10;;
18146;SDS011;9199;48.832;9.182;2023-04-06T01:38:32;15.73;;;8.48;;
18146;SDS011;9199;48.832;9.182;2023-04-06T01:41:01;14.57;;;8.33;;
18146;SDS011;9199;48.832;9.182;2023-04-06T01:43:27;16.52;;;8.63;;
18146;SDS011;9199;48.832;9.182;2023-04-06T01:45:54;15.57;;;8.57;;
18146;SDS011;9199;48.832;9.182;2023-04-06T01:48:21;14.05;;;8.38;;
18146;SDS011;9199;48.832;9.182;2023-04-06T01:50:49;13.02;;;8.20;;
18146;SDS011;9199;48.832;9.182;2023-04-06T01:53:16;15.23;;;8.37;;
18146;SDS011;9199;48.832;9.182;2023-04-06T01:55:42;14.35;;;7.72;;
18146;SDS011;9199;48.832;9.182;2023-04-06T01:58:10;16.20;;;8.80;;
18146;SDS011;9199;48.832;9.182;2023-04-06T02:00:38;16.33;;;8.70;;
18146;SDS011;9199;48.832;9.182;2023-04-06T02:03:05;16.02;;;8.50;;
18146;SDS011;9199;48.832;9.182;2023-04-06T02:05:32;13.37;;;8.03;;
18146;SDS011;9199;48.832;9.182;2023-04-06T02:08:02;16.20;;;8.73;;
18146;SDS011;9199;48.832;9.182;2023-04-06T02:10:29;14.75;;;8.35;;
18146;SDS011;9199;48.832;9.182;2023-04-06T02:12:56;17.27;;;8.88;;
18146;SDS011;9199;48.832;9.182;2023-04-06T02:15:24;14.20;;;8.48;;
18146;SDS011;9199;48.832;9.182;2023-04-06T02:17:51;16.90;;;9.30;;
18146;SDS011;9199;48.832;9.182;2023-04-06T02:20:18;15.38;;;8.50;;
18146;SDS011;9199;48.832;9.182;2023-04-06T02:22:45;16.95;;;8.48;;
18146;SDS011;9199;48.832;9.182;2023-04-06T02:25:11;14.48;;;9.00;;
18146;SDS011;9199;48.832;9.182;2023-04-06T02:27:38;16.92;;;9.25;;
18146;SDS011;9199;48.832;9.182;2023-04-06T02:30:05;17.57;;;8.70;;
18146;SDS011;9199;48.832;9.182;2023-04-06T02:32:34;15.50;;;8.63;;
18146;SDS011;9199;48.832;9.182;2023-04-06T02:35:01;14.65;;;8.15;;
18146;SDS011;9199;48.832;9.182;2023-04-06T02:37:28;12.73;;;8.50;;
18146;SDS011;9199;48.832;9.182;2023-04-06T02:39:55;14.85;;;8.95;;
18146;SDS011;9199;48.832;9.182;2023-04-06T02:42:21;15.07;;;8.83;;
18146;SDS011;9199;48.832;9.182;2023-04-06T02:44:48;17.50;;;8.55;;
18146;SDS011;9199;48.832;9.182;2023-04-06T02:47:15;16.60;;;9.10;;
18146;SDS011;9199;48.832;9.182;2023-04-06T02:49:43;17.52;;;9.23;;
18146;SDS011;9199;48.832;9.182;2023-04-06T02:52:10;15.98;;;9.70;;
18146;SDS011;9199;48.832;9.182;2023-04-06T02:54:36;17.77;;;9.90;;
18146;SDS011;9199;48.832;9.182;2023-04-06T02:57:03;22.67;;;11.07;;
18146;SDS011;9199;48.832;9.182;2023-04-06T02:59:30;25.63;;;12.52;;
18146;SDS011;9199;48.832;9.182;2023-04-06T03:01:57;23.73;;;11.15;;
18146;SDS011;9199;48.832;9.182;2023-04-06T03:04:24;19.65;;;10.63;;
18146;SDS011;9199;48.832;9.182;2023-04-06T03:06:52;15.67;;;8.63;;
18146;SDS011;9199;48.832;9.182;2023-04-06T03:09:20;15.00;;;8.90;;
18146;SDS011;9199;48.832;9.182;2023-04-06T03:11:46;15.13;;;8.43;;
18146;SDS011;9199;48.832;9.182;2023-04-06T03:14:13;14.25;;;8.15;;
18146;SDS011;9199;48.832;9.182;2023-04-06T03:16:42;19.30;;;10.27;;
18146;SDS011;9199;48.832;9.182;2023-04-06T03:19:08;20.20;;;10.77;;
18146;SDS011;9199;48.832;9.182;2023-04-06T03:21:35;18.45;;;10.13;;
18146;SDS011;9199;48.832;9.182;2023-04-06T03:24:03;14.70;;;9.25;;
18146;SDS011;9199;48.832;9.182;2023-04-06T03:26:30;15.93;;;8.65;;
18146;SDS011;9199;48.832;9.182;2023-04-06T03:28:57;16.90;;;8.93;;
18146;SDS011;9199;48.832;9.182;2023-04-06T03:31:24;17.43;;;9.23;;
18146;SDS011;9199;48.832;9.182;2023-04-06T03:33:52;18.08;;;8.90;;
18146;SDS011;9199;48.832;9.182;2023-04-06T03:36:18;19.70;;;9.25;;
18146;SDS011;9199;48.832;9.182;2023-04-06T03:38:45;16.63;;;9.30;;
18146;SDS011;9199;48.832;9.182;2023-04-06T03:41:13;14.75;;;8.95;;
18146;SDS011;9199;48.832;9.182;2023-04-06T03:43:40;18.90;;;10.00;;
18146;SDS011;9199;48.832;9.182;2023-04-06T03:46:07;18.98;;;9.70;;
18146;SDS011;9199;48.832;9.182;2023-04-06T03:48:33;20.77;;;10.05;;
18146;SDS011;9199;48.832;9.182;2023-04-06T03:51:00;18.63;;;10.07;;
18146;SDS011;9199;48.832;9.182;2023-04-06T03:53:26;18.73;;;10.15;;
18146;SDS011;9199;48.832;9.182;2023-04-06T03:55:53;17.83;;;9.90;;
18146;SDS011;9199;48.832;9.182;2023-04-06T03:58:22;15.80;;;9.02;;
18146;SDS011;9199;48.832;9.182;2023-04-06T04:00:48;17.38;;;9.15;;
18146;SDS011;9199;48.832;9.182;2023-04-06T04:03:15;15.15;;;8.80;;
18146;SDS011;9199;48.832;9.182;2023-04-06T04:05:42;14.68;;;8.82;;
18146;SDS011;9199;48.832;9.182;2023-04-06T04:08:09;16.67;;;9.27;;
18146;SDS011;9199;48.832;9.182;2023-04-06T04:10:36;16.00;;;9.00;;
18146;SDS011;9199;48.832;9.182;2023-04-06T04:13:02;19.35;;;9.30;;
18146;SDS011;9199;48.832;9.182;2023-04-06T04:15:31;16.88;;;9.65;;
18146;SDS011;9199;48.832;9.182;2023-04-06T04:17:58;17.27;;;9.63;;
18146;SDS011;9199;48.832;9.182;2023-04-06T04:20:24;16.13;;;10.00;;
18146;SDS011;9199;48.832;9.182;2023-04-06T04:22:51;17.00;;;9.05;;
18146;SDS011;9199;48.832;9.182;2023-04-06T04:25:18;20.02;;;9.73;;
18146;SDS011;9199;48.832;9.182;2023-04-06T04:27:45;16.67;;;9.80;;
18146;SDS011;9199;48.832;9.182;2023-04-06T04:30:12;17.98;;;9.43;;
18146;SDS011;9199;48.832;9.182;2023-04-06T04:32:40;18.53;;;9.13;;
18146;SDS011;9199;48.832;9.182;2023-04-06T04:35:07;19.42;;;9.55;;
18146;SDS011;9199;48.832;9.182;2023-04-06T04:37:35;14.27;;;8.63;;
18146;SDS011;9199;48.832;9.182;2023-04-06T04:40:01;16.13;;;9.35;;
18146;SDS011;9199;48.832;9.182;2023-04-06T04:42:28;31.52;;;13.93;;
18146;SDS011;9199;48.832;9.182;2023-04-06T04:44:55;29.47;;;13.50;;
18146;SDS011;9199;48.832;9.182;2023-04-06T04:47:21;19.20;;;10.18;;
18146;SDS011;9199;48.832;9.182;2023-04-06T04:49:49;18.42;;;9.32;;
18146;SDS011;9199;48.832;9.182;2023-04-06T04:52:16;18.33;;;9.40;;
18146;SDS011;9199;48.832;9.182;2023-04-06T04:54:43;18.15;;;9.07;;
18146;SDS011;9199;48.832;9.182;2023-04-06T04:57:11;19.63;;;9.33;;
18146;SDS011;9199;48.832;9.182;2023-04-06T04:59:38;17.58;;;8.90;;
18146;SDS011;9199;48.832;9.182;2023-04-06T05:02:05;18.10;;;8.88;;
18146;SDS011;9199;48.832;9.182;2023-04-06T05:04:31;15.32;;;8.68;;
18146;SDS011;9199;48.832;9.182;2023-04-06T05:07:03;15.23;;;9.52;;
18146;SDS011;9199;48.832;9.182;2023-04-06T05:09:30;18.30;;;10.30;;
18146;SDS011;9199;48.832;9.182;2023-04-06T05:11:57;15.32;;;9.13;;
18146;SDS011;9199;48.832;9.182;2023-04-06T05:14:24;16.83;;;9.02;;
18146;SDS011;9199;48.832;9.182;2023-04-06T05:16:51;16.65;;;9.35;;
18146;SDS011;9199;48.832;9.182;2023-04-06T05:19:18;17.55;;;8.85;;
18146;SDS011;9199;48.832;9.182;2023-04-06T05:21:44;16.53;;;9.33;;
18146;SDS011;9199;48.832;9.182;2023-04-06T05:24:12;14.80;;;8.75;;
18146;SDS011;9199;48.832;9.182;2023-04-06T05:26:39;16.80;;;9.45;;
18146;SDS011;9199;48.832;9.182;2023-04-06T05:29:06;16.00;;;9.70;;
18146;SDS011;9199;48.832;9.182;2023-04-06T05:31:32;16.02;;;9.25;;
18146;SDS011;9199;48.832;9.182;2023-04-06T05:33:59;17.93;;;9.83;;
18146;SDS011;9199;48.832;9.182;2023-04-06T05:36:26;16.20;;;9.50;;
18146;SDS011;9199;48.832;9.182;2023-04-06T05:38:52;15.88;;;9.52;;
18146;SDS011;9199;48.832;9.182;2023-04-06T05:41:22;19.42;;;9.30;;
18146;SDS011;9199;48.832;9.182;2023-04-06T05:43:49;15.60;;;9.13;;
18146;SDS011;9199;48.832;9.182;2023-04-06T05:46:16;18.90;;;9.83;;
18146;SDS011;9199;48.832;9.182;2023-04-06T05:48:43;16.80;;;9.80;;
18146;SDS011;9199;48.832;9.182;2023-04-06T05:51:10;21.52;;;9.32;;
18146;SDS011;9199;48.832;9.182;2023-04-06T05:53:36;15.88;;;8.88;;
18146;SDS011;9199;48.832;9.182;2023-04-06T05:56:04;17.95;;;9.88;;
18146;SDS011;9199;48.832;9.182;2023-04-06T05:58:32;16.77;;;9.23;;
18146;SDS011;9199;48.832;9.182;2023-04-06T06:00:59;19.95;;;10.30;;
18146;SDS011;9199;48.832;9.182;2023-04-06T06:03:27;17.27;;;10.20;;
18146;SDS011;9199;48.832;9.182;2023-04-06T06:05:58;18.25;;;10.32;;
18146;SDS011;9199;48.832;9.182;2023-04-06T06:08:25;19.23;;;10.25;;
18146;SDS011;9199;48.832;9.182;2023-04-06T06:10:52;18.17;;;10.53;;
18146;SDS011;9199;48.832;9.182;2023-04-06T06:13:19;18.95;;;10.88;;
18146;SDS011;9199;48.832;9.182;2023-04-06T06:15:47;16.63;;;10.77;;
18146;SDS011;9199;48.832;9.182;2023-04-06T06:18:14;17.88;;;11.00;;
18146;SDS011;9199;48.832;9.182;2023-04-06T06:20:41;18.20;;;11.18;;
18146;SDS011;9199;48.832;9.182;2023-04-06T06:23:08;19.03;;;10.90;;
18146;SDS011;9199;48.832;9.182;2023-04-06T06:25:35;19.45;;;11.00;;
18146;SDS011;9199;48.832;9.182;2023-04-06T06:28:01;18.63;;;10.65;;
18146;SDS011;9199;48.832;9.182;2023-04-06T06:30:28;17.17;;;10.15;;
18146;SDS011;9199;48.832;9.182;2023-04-06T06:32:56;16.45;;;9.77;;
18146;SDS011;9199;48.832;9.182;2023-04-06T06:35:23;16.80;;;9.97;;
18146;SDS011;9199;48.832;9.182;2023-04-06T06:37:50;17.88;;;10.82;;
18146;SDS011;9199;48.832;9.182;2023-04-06T06:40:16;17.40;;;10.38;;
18146;SDS011;9199;48.832;9.182;2023-04-06T06:42:45;17.08;;;10.98;;
18146;SDS011;9199;48.832;9.182;2023-04-06T06:45:11;18.75;;;10.68;;
18146;SDS011;9199;48.832;9.182;2023-04-06T06:47:38;19.93;;;11.57;;
18146;SDS011;9199;48.832;9.182;2023-04-06T06:50:07;20.23;;;11.00;;
18146;SDS011;9199;48.832;9.182;2023-04-06T06:52:34;16.90;;;9.88;;
18146;SDS011;9199;48.832;9.182;2023-04-06T06:55:01;15.38;;;9.75;;
18146;SDS011;9199;48.832;9.182;2023-04-06T06:57:28;15.23;;;9.52;;
18146;SDS011;9199;48.832;9.182;2023-04-06T06:59:55;15.87;;;9.33;;
18146;SDS011;9199;48.832;9.182;2023-04-06T07:02:24;15.45;;;9.77;;
18146;SDS011;9199;48.832;9.182;2023-04-06T07:04:51;15.48;;;9.75;;
18146;SDS011;9199;48.832;9.182;2023-04-06T07:07:19;16.48;;;9.82;;
18146;SDS011;9199;48.832;9.182;2023-04-06T07:09:46;19.65;;;10.60;;
18146;SDS011;9199;48.832;9.182;2023-04-06T07:12:13;15.27;;;9.73;;
18146;SDS011;9199;48.832;9.182;2023-04-06T07:14:40;18.90;;;10.60;;
18146;SDS011;9199;48.832;9.182;2023-04-06T07:17:07;18.42;;;10.07;;
18146;SDS011;9199;48.832;9.182;2023-04-06T07:19:34;16.10;;;10.57;;
18146;SDS011;9199;48.832;9.182;2023-04-06T07:22:01;19.05;;;10.07;;
18146;SDS011;9199;48.832;9.182;2023-04-06T07:24:29;16.03;;;10.17;;
18146;SDS011;9199;48.832;9.182;2023-04-06T07:26:57;20.58;;;9.57;;
18146;SDS011;9199;48.832;9.182;2023-04-06T07:29:25;19.83;;;10.20;;
18146;SDS011;9199;48.832;9.182;2023-04-06T07:31:52;20.27;;;10.38;;
18146;SDS011;9199;48.832;9.182;2023-04-06T07:34:19;15.27;;;9.52;;
18146;SDS011;9199;48.832;9.182;2023-04-06T07:36:46;17.10;;;9.93;;
18146;SDS011;9199;48.832;9.182;2023-04-06T07:39:13;18.90;;;9.93;;
18146;SDS011;9199;48.832;9.182;2023-04-06T07:41:41;17.80;;;10.10;;
18146;SDS011;9199;48.832;9.182;2023-04-06T07:44:08;17.38;;;9.40;;
18146;SDS011;9199;48.832;9.182;2023-04-06T07:46:34;18.85;;;9.73;;
18146;SDS011;9199;48.832;9.182;2023-04-06T07:49:01;14.47;;;9.80;;
18146;SDS011;9199;48.832;9.182;2023-04-06T07:51:28;18.38;;;10.93;;
18146;SDS011;9199;48.832;9.182;2023-04-06T07:53:56;18.60;;;9.93;;
18146;SDS011;9199;48.832;9.182;2023-04-06T07:56:22;16.83;;;9.82;;
18146;SDS011;9199;48.832;9.182;2023-04-06T07:58:51;17.05;;;10.02;;
18146;SDS011;9199;48.832;9.182;2023-04-06T08:01:20;17.33;;;9.80;;
18146;SDS011;9199;48.832;9.182;2023-04-06T08:03:47;16.45;;;9.38;;
18146;SDS011;9199;48.832;9.182;2023-04-06T08:06:14;16.17;;;9.38;;
18146;SDS011;9199;48.832;9.182;2023-04-06T08:08:41;14.75;;;9.68;;
18146;SDS011;9199;48.832;9.182;2023-04-06T08:11:07;14.27;;;9.25;;
18146;SDS011;9199;48.832;9.182;2023-04-06T08:13:34;14.23;;;9.63;;
18146;SDS011;9199;48.832;9.182;2023-04-06T08:16:03;16.23;;;9.40;;
18146;SDS011;9199;48.832;9.182;2023-04-06T08:18:30;14.18;;;9.35;;
18146;SDS011;9199;48.832;9.182;2023-04-06T08:20:57;15.35;;;9.55;;
18146;SDS011;9199;48.832;9.182;2023-04-06T08:23:23;15.38;;;8.85;;
18146;SDS011;9199;48.832;9.182;2023-04-06T08:25:50;16.97;;;9.87;;
18146;SDS011;9199;48.832;9.182;2023-04-06T08:28:19;13.57;;;8.60;;
18146;SDS011;9199;48.832;9.182;2023-04-06T08:30:45;16.05;;;9.32;;
18146;SDS011;9199;48.832;9.182;2023-04-06T08:33:14;16.27;;;9.15;;
18146;SDS011;9199;48.832;9.182;2023-04-06T08:35:40;15.45;;;10.00;;
18146;SDS011;9199;48.832;9.182;2023-04-06T08:38:07;17.53;;;9.40;;
18146;SDS011;9199;48.832;9.182;2023-04-06T08:40:36;14.02;;;9.60;;
18146;SDS011;9199;48.832;9.182;2023-04-06T08:43:03;13.45;;;9.45;;
18146;SDS011;9199;48.832;9.182;2023-04-06T08:45:33;13.10;;;9.30;;
18146;SDS011;9199;48.832;9.182;2023-04-06T08:48:00;14.98;;;9.30;;
18146;SDS011;9199;48.832;9.182;2023-04-06T08:50:31;14.70;;;9.07;;
18146;SDS011;9199;48.832;9.182;2023-04-06T08:53:00;14.82;;;8.77;;
18146;SDS011;9199;48.832;9.182;2023-04-06T08:55:27;15.60;;;9.30;;
18146;SDS011;9199;48.832;9.182;2023-04-06T08:57:54;11.57;;;8.48;;
18146;SDS011;9199;48.832;9.182;2023-04-06T09:00:21;11.90;;;8.57;;
18146;SDS011;9199;48.832;9.182;2023-04-06T09:02:50;14.53;;;9.13;;
18146;SDS011;9199;48.832;9.182;2023-04-06T09:05:21;11.23;;;8.10;;
18146;SDS011;9199;48.832;9.182;2023-04-06T09:07:51;12.93;;;9.27;;
18146;SDS011;9199;48.832;9.182;2023-04-06T09:10:18;13.05;;;8.82;;
18146;SDS011;9199;48.832;9.182;2023-04-06T09:12:45;12.45;;;8.77;;
18146;SDS011;9199;48.832;9.182;2023-04-06T09:15:18;13.07;;;8.07;;
18146;SDS011;9199;48.832;9.182;2023-04-06T09:17:45;10.40;;;7.30;;
18146;SDS011;9199;48.832;9.182;2023-04-06T09:20:12;11.43;;;7.20;;
18146;SDS011;9199;48.832;9.182;2023-04-06T09:22:39;12.65;;;7.93;;
18146;SDS011;9199;48.832;9.182;2023-04-06T09:25:08;9.95;;;7.32;;
18146;SDS011;9199;48.832;9.182;2023-04-06T09:27:37;11.67;;;7.40;;
18146;SDS011;9199;48.832;9.182;2023-04-06T09:30:04;13.90;;;8.25;;
18146;SDS011;9199;48.832;9.182;2023-04-06T09:32:43;11.40;;;8.10;;
18146;SDS011;9199;48.832;9.182;2023-04-06T09:35:12;12.30;;;8.20;;
18146;SDS011;9199;48.832;9.182;2023-04-06T09:37:39;14.43;;;8.05;;
18146;SDS011;9199;48.832;9.182;2023-04-06T09:40:06;12.20;;;7.40;;
18146;SDS011;9199;48.832;9.182;2023-04-06T09:42:35;11.40;;;7.75;;
18146;SDS011;9199;48.832;9.182;2023-04-06T09:45:02;12.48;;;7.95;;
18146;SDS011;9199;48.832;9.182;2023-04-06T09:47:30;10.88;;;7.13;;
18146;SDS011;9199;48.832;9.182;2023-04-06T09:49:58;12.30;;;8.10;;
18146;SDS011;9199;48.832;9.182;2023-04-06T09:52:26;13.90;;;7.67;;
18146;SDS011;9199;48.832;9.182;2023-04-06T09:54:55;13.18;;;8.13;;
18146;SDS011;9199;48.832;9.182;2023-04-06T09:57:28;10.43;;;6.53;;
18146;SDS011;9199;48.832;9.182;2023-04-06T10:00:01;9.20;;;6.32;;
18146;SDS011;9199;48.832;9.182;2023-04-06T10:02:35;11.30;;;7.05;;
18146;SDS011;9199;48.832;9.182;2023-04-06T10:05:08;11.43;;;7.70;;
18146;SDS011;9199;48.832;9.182;2023-04-06T10:07:39;12.20;;;7.35;;
18146;SDS011;9199;48.832;9.182;2023-04-06T10:10:07;10.63;;;7.18;;
18146;SDS011;9199;48.832;9.182;2023-04-06T10:12:37;10.43;;;7.10;;
18146;SDS011;9199;48.832;9.182;2023-04-06T10:15:05;8.93;;;6.70;;
18146;SDS011;9199;48.832;9.182;2023-04-06T10:17:33;11.70;;;7.20;;
18146;SDS011;9199;48.832;9.182;2023-04-06T10:20:02;10.40;;;7.38;;
18146;SDS011;9199;48.832;9.182;2023-04-06T10:22:36;10.32;;;7.43;;
18146;SDS011;9199;48.832;9.182;2023-04-06T10:25:08;10.95;;;7.95;;
18146;SDS011;9199;48.832;9.182;2023-04-06T10:27:35;10.55;;;8.00;;
18146;SDS011;9199;48.832;9.182;2023-04-06T10:30:04;11.17;;;7.90;;
18146;SDS011;9199;48.832;9.182;2023-04-06T10:32:33;10.57;;;7.75;;
18146;SDS011;9199;48.832;9.182;2023-04-06T10:35:05;10.18;;;6.90;;
18146;SDS011;9199;48.832;9.182;2023-04-06T10:37:45;11.48;;;7.57;;
18146;SDS011;9199;48.832;9.182;2023-04-06T10:40:22;10.55;;;7.25;;
18146;SDS011;9199;48.832;9.182;2023-04-06T10:42:51;9.77;;;7.40;;
18146;SDS011;9199;48.832;9.182;2023-04-06T10:45:23;10.93;;;7.28;;
18146;SDS011;9199;48.832;9.182;2023-04-06T10:47:52;11.40;;;7.78;;
18146;SDS011;9199;48.832;9.182;2023-04-06T10:50:19;11.25;;;7.57;;
18146;SDS011;9199;48.832;9.182;2023-04-06T10:52:47;9.20;;;6.32;;
18146;SDS011;9199;48.832;9.182;2023-04-06T10:55:24;9.40;;;7.07;;
18146;SDS011;9199;48.832;9.182;2023-04-06T10:57:52;9.10;;;6.63;;
18146;SDS011;9199;48.832;9.182;2023-04-06T11:00:19;9.27;;;6.35;;
18146;SDS011;9199;48.832;9.182;2023-04-06T11:02:48;9.18;;;6.78;;
18146;SDS011;9199;48.832;9.182;2023-04-06T11:05:15;10.13;;;7.10;;
18146;SDS011;9199;48.832;9.182;2023-04-06T11:07:41;9.50;;;7.40;;
18146;SDS011;9199;48.832;9.182;2023-04-06T11:10:09;9.98;;;7.20;;
18146;SDS011;9199;48.832;9.182;2023-04-06T11:12:36;10.02;;;7.57;;
18146;SDS011;9199;48.832;9.182;2023-04-06T11:15:03;11.65;;;7.30;;
18146;SDS011;9199;48.832;9.182;2023-04-06T11:17:31;8.77;;;6.15;;
18146;SDS011;9199;48.832;9.182;2023-04-06T11:20:01;10.57;;;7.23;;
18146;SDS011;9199;48.832;9.182;2023-04-06T11:22:29;10.20;;;6.80;;
18146;SDS011;9199;48.832;9.182;2023-04-06T11:25:04;9.13;;;6.72;;
18146;SDS011;9199;48.832;9.182;2023-04-06T11:27:31;10.63;;;7.07;;
18146;SDS011;9199;48.832;9.182;2023-04-06T11:29:59;9.93;;;6.80;;
18146;SDS011;9199;48.832;9.182;2023-04-06T11:32:26;8.50;;;6.43;;
18146;SDS011;9199;48.832;9.182;2023-04-06T11:34:53;9.75;;;6.50;;
18146;SDS011;9199;48.832;9.182;2023-04-06T11:37:21;8.65;;;6.43;;
18146;SDS011;9199;48.832;9.182;2023-04-06T11:39:52;8.23;;;5.97;;
18146;SDS011;9199;48.832;9.182;2023-04-06T11:42:22;8.73;;;6.65;;
18146;SDS011;9199;48.832;9.182;2023-04-06T11:44:49;8.60;;;6.17;;
18146;SDS011;9199;48.832;9.182;2023-04-06T11:47:18;8.82;;;7.13;;
18146;SDS011;9199;48.832;9.182;2023-04-06T11:49:46;8.10;;;6.18;;
18146;SDS011;9199;48.832;9.182;2023-04-06T11:52:14;8.15;;;6.28;;
18146;SDS011;9199;48.832;9.182;2023-04-06T11:54:43;7.82;;;6.40;;
18146;SDS011;9199;48.832;9.182;2023-04-06T11:57:10;7.70;;;6.00;;
18146;SDS011;9199;48.832;9.182;2023-04-06T11:59:37;7.63;;;5.35;;
18146;SDS011;9199;48.832;9.182;2023-04-06T12:02:04;7.95;;;6.10;;
18146;SDS011;9199;48.832;9.182;2023-04-06T12:04:31;7.93;;;5.75;;
18146;SDS011;9199;48.832;9.182;2023-04-06T12:06:58;8.90;;;6.45;;
18146;SDS011;9199;48.832;9.182;2023-04-06T12:09:25;9.43;;;6.80;;
18146;SDS011;9199;48.832;9.182;2023-04-06T12:11:53;8.63;;;6.00;;
18146;SDS011;9199;48.832;9.182;2023-04-06T12:14:21;9.85;;;6.60;;
18146;SDS011;9199;48.832;9.182;2023-04-06T12:16:47;11.05;;;7.00;;
18146;SDS011;9199;48.832;9.182;2023-04-06T12:19:14;8.20;;;6.65;;
18146;SDS011;9199;48.832;9.182;2023-04-06T12:21:41;9.17;;;6.07;;
18146;SDS011;9199;48.832;9.182;2023-04-06T12:24:08;8.38;;;6.00;;
18146;SDS011;9199;48.832;9.182;2023-04-06T12:26:35;8.07;;;5.90;;
18146;SDS011;9199;48.832;9.182;2023-04-06T12:29:03;10.98;;;6.20;;
18146;SDS011;9199;48.832;9.182;2023-04-06T12:31:32;7.63;;;5.57;;
18146;SDS011;9199;48.832;9.182;2023-04-06T12:34:00;9.83;;;6.00;;
18146;SDS011;9199;48.832;9.182;2023-04-06T12:36:28;8.85;;;5.85;;
18146;SDS011;9199;48.832;9.182;2023-04-06T12:38:54;8.65;;;6.05;;
18146;SDS011;9199;48.832;9.182;2023-04-06T12:41:21;8.38;;;5.65;;
18146;SDS011;9199;48.832;9.182;2023-04-06T12:43:49;9.63;;;5.80;;
18146;SDS011;9199;48.832;9.182;2023-04-06T12:46:18;7.77;;;5.60;;
18146;SDS011;9199;48.832;9.182;2023-04-06T12:48:44;8.40;;;5.60;;
18146;SDS011;9199;48.832;9.182;2023-04-06T12:51:11;7.70;;;5.70;;
18146;SDS011;9199;48.832;9.182;2023-04-06T12:53:38;8.73;;;5.45;;
18146;SDS011;9199;48.832;9.182;2023-04-06T12:56:10;7.53;;;5.65;;
18146;SDS011;9199;48.832;9.182;2023-04-06T12:58:38;8.40;;;6.20;;
18146;SDS011;9199;48.832;9.182;2023-04-06T13:01:06;7.72;;;5.80;;
18146;SDS011;9199;48.832;9.182;2023-04-06T13:03:35;7.65;;;5.32;;
18146;SDS011;9199;48.832;9.182;2023-04-06T13:06:02;7.82;;;5.35;;
18146;SDS011;9199;48.832;9.182;2023-04-06T13:08:28;7.65;;;5.45;;
18146;SDS011;9199;48.832;9.182;2023-04-06T13:10:55;7.93;;;5.50;;
18146;SDS011;9199;48.832;9.182;2023-04-06T13:13:22;7.75;;;5.53;;
18146;SDS011;9199;48.832;9.182;2023-04-06T13:15:50;8.75;;;5.40;;
18146;SDS011;9199;48.832;9.182;2023-04-06T13:18:17;9.93;;;6.78;;
18146;SDS011;9199;48.832;9.182;2023-04-06T13:20:46;10.10;;;5.95;;
18146;SDS011;9199;48.832;9.182;2023-04-06T13:23:13;7.87;;;5.93;;
18146;SDS011;9199;48.832;9.182;2023-04-06T13:25:40;8.85;;;5.88;;
18146;SDS011;9199;48.832;9.182;2023-04-06T13:28:06;11.68;;;6.30;;
18146;SDS011;9199;48.832;9.182;2023-04-06T13:30:33;8.05;;;5.82;;
18146;SDS011;9199;48.832;9.182;2023-04-06T13:33:00;8.57;;;5.60;;
18146;SDS011;9199;48.832;9.182;2023-04-06T13:35:28;8.93;;;6.13;;
18146;SDS011;9199;48.832;9.182;2023-04-06T13:37:56;10.30;;;6.05;;
18146;SDS011;9199;48.832;9.182;2023-04-06T13:40:23;8.82;;;5.43;;
18146;SDS011;9199;48.832;9.182;2023-04-06T13:42:50;7.90;;;5.53;;
18146;SDS011;9199;48.832;9.182;2023-04-06T13:45:16;8.05;;;5.45;;
18146;SDS011;9199;48.832;9.182;2023-04-06T13:47:43;7.20;;;5.20;;
18146;SDS011;9199;48.832;9.182;2023-04-06T13:50:10;7.43;;;5.22;;
18146;SDS011;9199;48.832;9.182;2023-04-06T13:52:37;8.13;;;5.75;;
18146;SDS011;9199;48.832;9.182;2023-04-06T13:55:05;8.38;;;5.68;;
18146;SDS011;9199;48.832;9.182;2023-04-06T13:57:33;9.25;;;5.93;;
18146;SDS011;9199;48.832;9.182;2023-04-06T14:00:01;9.30;;;6.00;;
18146;SDS011;9199;48.832;9.182;2023-04-06T14:02:27;9.05;;;6.05;;
18146;SDS011;9199;48.832;9.182;2023-04-06T14:04:54;10.68;;;6.07;;
18146;SDS011;9199;48.832;9.182;2023-04-06T14:07:21;7.82;;;5.95;;
18146;SDS011;9199;48.832;9.182;2023-04-06T14:09:48;8.70;;;5.43;;
18146;SDS011;9199;48.832;9.182;2023-04-06T14:12:16;8.70;;;5.50;;
18146;SDS011;9199;48.832;9.182;2023-04-06T14:14:43;8.30;;;5.53;;
18146;SDS011;9199;48.832;9.182;2023-04-06T14:17:09;9.02;;;5.82;;
18146;SDS011;9199;48.832;9.182;2023-04-06T14:19:36;9.60;;;6.00;;
18146;SDS011;9199;48.832;9.182;2023-04-06T14:22:03;7.50;;;5.03;;
18146;SDS011;9199;48.832;9.182;2023-04-06T14:24:30;8.77;;;5.80;;
18146;SDS011;9199;48.832;9.182;2023-04-06T14:26:57;9.40;;;5.88;;
18146;SDS011;9199;48.832;9.182;2023-04-06T14:29:25;9.52;;;5.65;;
18146;SDS011;9199;48.832;9.182;2023-04-06T14:31:51;9.68;;;5.28;;
18146;SDS011;9199;48.832;9.182;2023-04-06T14:34:18;8.10;;;5.60;;
18146;SDS011;9199;48.832;9.182;2023-04-06T14:36:46;9.10;;;5.60;;
18146;SDS011;9199;48.832;9.182;2023-04-06T14:39:12;9.00;;;5.40;;
18146;SDS011;9199;48.832;9.182;2023-04-06T14:41:39;7.65;;;5.50;;
18146;SDS011;9199;48.832;9.182;2023-04-06T14:44:06;7.68;;;5.15;;
18146;SDS011;9199;48.832;9.182;2023-04-06T14:46:38;8.18;;;5.30;;
18146;SDS011;9199;48.832;9.182;2023-04-06T14:49:05;10.20;;;5.90;;
18146;SDS011;9199;48.832;9.182;2023-04-06T14:51:33;9.68;;;5.47;;